Bay Bulls, Canada
Current Conditions -  °F | °C
As of 1:00 AM on Tuesday 23 Dec 2014 (Local Time) from CYYT Reporting Station
Overcast Overcast  
Wind Chill: 20°   Ceiling: 1100
Heat Index: 27°   Visibility: 15mi
Dew Point: 23°   Wind: 6mph
Humidity: 86%   Direction: 20°NNE
Pressure: 30.43"   Gusts: NA
Location:  47.33°N, 52.83°W
Report Text: CYYT 230400Z 02005KT 15SM OVC011 M03/M05 A3043 RMK SC8 SLP313
Loading
Personal Weather Stations






























Interactive Weather Map New forecast layout! Learn more

10-Day Weather Forecast

Advertisements
Track Severe Weather on mobile